sensor_id;sensor_type;location;lat;lon;timestamp;pressure;altitude;pressure_sealevel;temperature;humidity
67099;BME280;54288;53.046;5.668;2022-12-19T00:00:47;101812.09;;;-0.02;100.00
67099;BME280;54288;53.046;5.668;2022-12-19T00:03:13;101821.84;;;0.07;100.00
67099;BME280;54288;53.046;5.668;2022-12-19T00:05:40;101818.16;;;0.00;100.00
67099;BME280;54288;53.046;5.668;2022-12-19T00:08:15;101828.59;;;0.03;100.00
67099;BME280;54288;53.046;5.668;2022-12-19T00:10:42;101825.19;;;0.04;100.00
67099;BME280;54288;53.046;5.668;2022-12-19T00:13:31;101829.63;;;0.08;100.00
67099;BME280;54288;53.046;5.668;2022-12-19T00:19:45;101871.69;;;0.31;100.00
67099;BME280;54288;53.046;5.668;2022-12-19T00:22:11;101828.06;;;0.12;100.00
67099;BME280;54288;53.046;5.668;2022-12-19T00:24:37;101823.94;;;0.17;100.00
67099;BME280;54288;53.046;5.668;2022-12-19T00:27:03;101818.69;;;0.14;100.00
67099;BME280;54288;53.046;5.668;2022-12-19T00:29:29;101824.34;;;0.27;100.00
67099;BME280;54288;53.046;5.668;2022-12-19T00:31:57;101798.31;;;0.20;100.00
67099;BME280;54288;53.046;5.668;2022-12-19T00:34:26;101790.63;;;0.21;100.00
67099;BME280;54288;53.046;5.668;2022-12-19T00:36:52;101767.56;;;0.24;100.00
67099;BME280;54288;53.046;5.668;2022-12-19T00:39:18;101776.25;;;0.28;100.00
67099;BME280;54288;53.046;5.668;2022-12-19T00:41:45;101774.78;;;0.34;100.00
67099;BME280;54288;53.046;5.668;2022-12-19T00:46:52;101795.72;;;0.43;100.00
67099;BME280;54288;53.046;5.668;2022-12-19T00:49:19;101745.81;;;0.16;100.00
67099;BME280;54288;53.046;5.668;2022-12-19T00:51:45;101781.69;;;0.35;100.00
67099;BME280;54288;53.046;5.668;2022-12-19T00:56:55;101735.09;;;0.29;100.00
67099;BME280;54288;53.046;5.668;2022-12-19T00:59:24;101738.00;;;0.38;100.00
67099;BME280;54288;53.046;5.668;2022-12-19T01:01:50;101754.53;;;0.45;100.00
67099;BME280;54288;53.046;5.668;2022-12-19T01:04:21;101766.66;;;0.47;100.00
67099;BME280;54288;53.046;5.668;2022-12-19T01:06:50;101715.28;;;0.27;100.00
67099;BME280;54288;53.046;5.668;2022-12-19T01:09:16;101711.84;;;0.26;100.00
67099;BME280;54288;53.046;5.668;2022-12-19T01:11:42;101738.84;;;0.37;100.00
67099;BME280;54288;53.046;5.668;2022-12-19T01:14:27;101730.72;;;0.27;100.00
67099;BME280;54288;53.046;5.668;2022-12-19T01:16:53;101726.13;;;0.42;100.00
67099;BME280;54288;53.046;5.668;2022-12-19T01:19:22;101738.22;;;0.44;100.00
67099;BME280;54288;53.046;5.668;2022-12-19T01:21:48;101729.34;;;0.36;100.00
67099;BME280;54288;53.046;5.668;2022-12-19T01:24:14;101746.31;;;0.55;100.00
67099;BME280;54288;53.046;5.668;2022-12-19T01:26:40;101726.59;;;0.55;100.00
67099;BME280;54288;53.046;5.668;2022-12-19T01:31:49;101699.47;;;0.41;100.00
67099;BME280;54288;53.046;5.668;2022-12-19T01:34:15;101677.94;;;0.39;100.00
67099;BME280;54288;53.046;5.668;2022-12-19T01:36:42;101678.09;;;0.44;100.00
67099;BME280;54288;53.046;5.668;2022-12-19T01:39:31;101680.66;;;0.44;100.00
67099;BME280;54288;53.046;5.668;2022-12-19T01:42:19;101672.06;;;0.43;100.00
67099;BME280;54288;53.046;5.668;2022-12-19T01:50:18;101636.81;;;0.42;100.00
67099;BME280;54288;53.046;5.668;2022-12-19T02:12:42;101653.09;;;0.41;100.00
67099;BME280;54288;53.046;5.668;2022-12-19T02:15:11;101655.41;;;0.34;100.00
67099;BME280;54288;53.046;5.668;2022-12-19T02:42:01;101615.66;;;0.52;100.00
67099;BME280;54288;53.046;5.668;2022-12-19T02:44:41;101622.19;;;0.68;100.00
67099;BME280;54288;53.046;5.668;2022-12-19T03:12:59;101570.94;;;0.77;100.00
67099;BME280;54288;53.046;5.668;2022-12-19T03:15:28;101557.19;;;0.78;100.00
67099;BME280;54288;53.046;5.668;2022-12-19T03:18:00;101595.56;;;0.95;100.00
67099;BME280;54288;53.046;5.668;2022-12-19T03:20:48;101576.50;;;0.90;100.00
67099;BME280;54288;53.046;5.668;2022-12-19T03:28:48;101573.31;;;0.99;100.00
67099;BME280;54288;53.046;5.668;2022-12-19T03:37:14;101543.50;;;1.08;100.00
67099;BME280;54288;53.046;5.668;2022-12-19T03:39:44;101528.94;;;1.10;100.00
67099;BME280;54288;53.046;5.668;2022-12-19T03:42:14;101548.56;;;1.35;100.00
67099;BME280;54288;53.046;5.668;2022-12-19T03:45:04;101506.66;;;1.12;100.00
67099;BME280;54288;53.046;5.668;2022-12-19T03:47:49;101529.72;;;1.37;100.00
67099;BME280;54288;53.046;5.668;2022-12-19T03:50:17;101510.53;;;1.28;100.00
67099;BME280;54288;53.046;5.668;2022-12-19T03:53:16;101510.59;;;1.29;100.00
67099;BME280;54288;53.046;5.668;2022-12-19T03:58:48;101549.19;;;1.57;100.00
67099;BME280;54288;53.046;5.668;2022-12-19T04:01:16;101496.22;;;1.39;100.00
67099;BME280;54288;53.046;5.668;2022-12-19T04:03:43;101518.88;;;1.50;100.00
67099;BME280;54288;53.046;5.668;2022-12-19T04:06:12;101505.00;;;1.45;100.00
67099;BME280;54288;53.046;5.668;2022-12-19T04:11:24;101514.88;;;1.61;100.00
67099;BME280;54288;53.046;5.668;2022-12-19T04:14:02;101526.34;;;1.72;100.00
67099;BME280;54288;53.046;5.668;2022-12-19T04:16:41;101471.78;;;1.57;100.00
67099;BME280;54288;53.046;5.668;2022-12-19T04:21:48;101504.34;;;1.86;100.00
67099;BME280;54288;53.046;5.668;2022-12-19T04:24:26;101488.72;;;1.80;100.00
67099;BME280;54288;53.046;5.668;2022-12-19T04:29:38;101462.81;;;1.77;100.00
67099;BME280;54288;53.046;5.668;2022-12-19T04:32:07;101477.03;;;1.96;100.00
67099;BME280;54288;53.046;5.668;2022-12-19T04:34:34;101471.78;;;1.91;100.00
67099;BME280;54288;53.046;5.668;2022-12-19T04:37:00;101470.13;;;1.95;100.00
67099;BME280;54288;53.046;5.668;2022-12-19T04:39:26;101458.22;;;2.01;100.00
67099;BME280;54288;53.046;5.668;2022-12-19T04:44:34;101484.66;;;2.27;100.00
67099;BME280;54288;53.046;5.668;2022-12-19T04:47:00;101447.22;;;2.10;100.00
67099;BME280;54288;53.046;5.668;2022-12-19T04:49:26;101436.84;;;2.07;100.00
67099;BME280;54288;53.046;5.668;2022-12-19T04:51:52;101451.69;;;2.15;100.00
67099;BME280;54288;53.046;5.668;2022-12-19T04:54:23;101437.13;;;2.19;100.00
67099;BME280;54288;53.046;5.668;2022-12-19T04:56:49;101460.63;;;2.31;100.00
67099;BME280;54288;53.046;5.668;2022-12-19T04:59:15;101433.63;;;2.17;100.00
67099;BME280;54288;53.046;5.668;2022-12-19T05:01:41;101471.25;;;2.43;100.00
67099;BME280;54288;53.046;5.668;2022-12-19T05:04:07;101438.06;;;2.22;100.00
67099;BME280;54288;53.046;5.668;2022-12-19T05:06:33;101422.63;;;2.27;100.00
67099;BME280;54288;53.046;5.668;2022-12-19T05:09:00;101455.03;;;2.50;100.00
67099;BME280;54288;53.046;5.668;2022-12-19T05:11:26;101426.31;;;2.36;100.00
67099;BME280;54288;53.046;5.668;2022-12-19T05:13:52;101422.84;;;2.36;100.00
67099;BME280;54288;53.046;5.668;2022-12-19T05:16:18;101426.50;;;2.45;100.00
67099;BME280;54288;53.046;5.668;2022-12-19T05:18:44;101409.25;;;2.44;100.00
67099;BME280;54288;53.046;5.668;2022-12-19T05:21:11;101454.50;;;2.66;100.00
67099;BME280;54288;53.046;5.668;2022-12-19T05:23:37;101411.16;;;2.53;100.00
67099;BME280;54288;53.046;5.668;2022-12-19T05:26:05;101404.16;;;2.47;100.00
67099;BME280;54288;53.046;5.668;2022-12-19T05:28:32;101439.81;;;2.63;100.00
67099;BME280;54288;53.046;5.668;2022-12-19T05:31:13;101401.63;;;2.50;100.00
67099;BME280;54288;53.046;5.668;2022-12-19T05:33:41;101402.53;;;2.52;100.00
67099;BME280;54288;53.046;5.668;2022-12-19T05:36:09;101419.25;;;2.68;100.00
67099;BME280;54288;53.046;5.668;2022-12-19T05:38:36;101403.66;;;2.65;100.00
67099;BME280;54288;53.046;5.668;2022-12-19T05:55:40;101411.75;;;2.83;100.00
67099;BME280;54288;53.046;5.668;2022-12-19T06:00:48;101397.88;;;2.76;100.00
67099;BME280;54288;53.046;5.668;2022-12-19T06:06:16;101401.56;;;2.90;100.00
67099;BME280;54288;53.046;5.668;2022-12-19T06:08:43;101392.84;;;2.85;100.00
67099;BME280;54288;53.046;5.668;2022-12-19T06:14:02;101390.25;;;2.85;100.00
67099;BME280;54288;53.046;5.668;2022-12-19T06:16:28;101378.91;;;2.77;100.00
67099;BME280;54288;53.046;5.668;2022-12-19T06:18:54;101382.47;;;2.84;100.00
67099;BME280;54288;53.046;5.668;2022-12-19T06:21:22;101383.44;;;2.89;100.00
67099;BME280;54288;53.046;5.668;2022-12-19T06:23:50;101361.88;;;2.88;100.00
67099;BME280;54288;53.046;5.668;2022-12-19T06:26:20;101389.78;;;3.06;100.00
67099;BME280;54288;53.046;5.668;2022-12-19T06:36:49;101353.44;;;2.98;100.00
67099;BME280;54288;53.046;5.668;2022-12-19T06:48:47;101378.09;;;3.26;100.00
67099;BME280;54288;53.046;5.668;2022-12-19T06:51:15;101375.56;;;3.30;100.00
67099;BME280;54288;53.046;5.668;2022-12-19T06:53:41;101358.06;;;3.16;100.00
67099;BME280;54288;53.046;5.668;2022-12-19T06:56:08;101382.59;;;3.36;100.00
67099;BME280;54288;53.046;5.668;2022-12-19T06:58:34;101369.75;;;3.43;100.00
67099;BME280;54288;53.046;5.668;2022-12-19T07:01:00;101362.84;;;3.42;100.00
67099;BME280;54288;53.046;5.668;2022-12-19T07:05:55;101332.03;;;3.57;100.00
67099;BME280;54288;53.046;5.668;2022-12-19T07:08:23;101378.16;;;3.82;100.00
67099;BME280;54288;53.046;5.668;2022-12-19T07:10:49;101364.38;;;3.85;100.00
67099;BME280;54288;53.046;5.668;2022-12-19T07:13:18;101382.84;;;4.07;100.00
67099;BME280;54288;53.046;5.668;2022-12-19T07:15:44;101344.66;;;3.94;100.00
67099;BME280;54288;53.046;5.668;2022-12-19T07:18:12;101361.47;;;4.23;100.00
67099;BME280;54288;53.046;5.668;2022-12-19T07:20:39;101352.97;;;4.35;100.00
67099;BME280;54288;53.046;5.668;2022-12-19T07:23:12;101351.16;;;4.29;100.00
67099;BME280;54288;53.046;5.668;2022-12-19T07:25:41;101362.59;;;4.43;100.00
67099;BME280;54288;53.046;5.668;2022-12-19T07:28:15;101343.59;;;4.44;100.00
67099;BME280;54288;53.046;5.668;2022-12-19T07:30:41;101371.53;;;4.66;100.00
67099;BME280;54288;53.046;5.668;2022-12-19T07:33:08;101381.00;;;4.66;100.00
67099;BME280;54288;53.046;5.668;2022-12-19T07:35:36;101378.63;;;4.82;100.00
67099;BME280;54288;53.046;5.668;2022-12-19T07:38:06;101363.00;;;4.76;100.00
67099;BME280;54288;53.046;5.668;2022-12-19T07:40:34;101373.34;;;4.75;100.00
67099;BME280;54288;53.046;5.668;2022-12-19T07:43:01;101376.09;;;4.87;100.00
67099;BME280;54288;53.046;5.668;2022-12-19T07:45:27;101383.06;;;4.91;100.00
67099;BME280;54288;53.046;5.668;2022-12-19T07:47:54;101363.16;;;4.91;100.00
67099;BME280;54288;53.046;5.668;2022-12-19T07:50:20;101382.22;;;4.96;100.00
67099;BME280;54288;53.046;5.668;2022-12-19T07:52:46;101357.88;;;4.82;100.00
67099;BME280;54288;53.046;5.668;2022-12-19T07:55:12;101388.34;;;5.01;100.00
67099;BME280;54288;53.046;5.668;2022-12-19T07:57:38;101396.25;;;5.10;100.00
67099;BME280;54288;53.046;5.668;2022-12-19T08:00:05;101353.63;;;4.87;100.00
67099;BME280;54288;53.046;5.668;2022-12-19T08:02:38;101364.88;;;4.91;100.00
67099;BME280;54288;53.046;5.668;2022-12-19T08:05:04;101385.84;;;5.10;100.00
67099;BME280;54288;53.046;5.668;2022-12-19T08:07:30;101371.97;;;5.08;100.00
67099;BME280;54288;53.046;5.668;2022-12-19T08:09:57;101357.09;;;4.91;100.00
67099;BME280;54288;53.046;5.668;2022-12-19T08:12:23;101391.13;;;5.18;100.00
67099;BME280;54288;53.046;5.668;2022-12-19T08:14:53;101384.19;;;5.15;100.00
67099;BME280;54288;53.046;5.668;2022-12-19T08:20:00;101375.41;;;5.06;100.00
67099;BME280;54288;53.046;5.668;2022-12-19T08:22:28;101365.94;;;5.09;100.00
67099;BME280;54288;53.046;5.668;2022-12-19T08:24:56;101354.72;;;5.10;100.00
67099;BME280;54288;53.046;5.668;2022-12-19T08:27:23;101385.09;;;5.22;100.00
67099;BME280;54288;53.046;5.668;2022-12-19T08:29:50;101367.81;;;5.22;100.00
67099;BME280;54288;53.046;5.668;2022-12-19T08:32:16;101347.81;;;5.14;100.00
67099;BME280;54288;53.046;5.668;2022-12-19T08:34:42;101368.78;;;5.33;100.00
67099;BME280;54288;53.046;5.668;2022-12-19T08:37:08;101375.81;;;5.46;100.00
67099;BME280;54288;53.046;5.668;2022-12-19T08:39:36;101374.84;;;5.37;100.00
67099;BME280;54288;53.046;5.668;2022-12-19T08:42:02;101403.72;;;5.70;100.00
67099;BME280;54288;53.046;5.668;2022-12-19T08:44:52;101367.22;;;5.55;100.00
67099;BME280;54288;53.046;5.668;2022-12-19T08:47:18;101372.44;;;5.58;100.00
67099;BME280;54288;53.046;5.668;2022-12-19T08:49:44;101385.50;;;5.68;100.00
67099;BME280;54288;53.046;5.668;2022-12-19T08:52:10;101388.19;;;5.76;100.00
67099;BME280;54288;53.046;5.668;2022-12-19T08:54:36;101368.25;;;5.73;100.00
67099;BME280;54288;53.046;5.668;2022-12-19T08:57:21;101376.91;;;5.75;100.00
67099;BME280;54288;53.046;5.668;2022-12-19T08:59:47;101377.00;;;5.84;100.00
67099;BME280;54288;53.046;5.668;2022-12-19T09:02:14;101402.34;;;6.12;100.00
67099;BME280;54288;53.046;5.668;2022-12-19T09:04:40;101371.88;;;5.95;100.00
67099;BME280;54288;53.046;5.668;2022-12-19T09:07:09;101386.69;;;6.06;100.00
67099;BME280;54288;53.046;5.668;2022-12-19T09:09:35;101391.09;;;6.18;100.00
67099;BME280;54288;53.046;5.668;2022-12-19T09:12:01;101397.25;;;6.30;100.00
67099;BME280;54288;53.046;5.668;2022-12-19T09:14:33;101384.13;;;6.11;100.00
67099;BME280;54288;53.046;5.668;2022-12-19T09:17:00;101389.34;;;6.17;100.00
67099;BME280;54288;53.046;5.668;2022-12-19T09:19:26;101373.78;;;6.23;100.00
67099;BME280;54288;53.046;5.668;2022-12-19T09:21:53;101388.53;;;6.28;100.00
67099;BME280;54288;53.046;5.668;2022-12-19T09:24:19;101406.81;;;6.42;100.00
67099;BME280;54288;53.046;5.668;2022-12-19T09:26:52;101385.97;;;6.31;100.00
67099;BME280;54288;53.046;5.668;2022-12-19T09:29:19;101383.34;;;6.30;100.00
67099;BME280;54288;53.046;5.668;2022-12-19T09:31:45;101392.03;;;6.33;100.00
67099;BME280;54288;53.046;5.668;2022-12-19T09:34:11;101389.47;;;6.39;100.00
67099;BME280;54288;53.046;5.668;2022-12-19T09:36:37;101409.47;;;6.49;100.00
67099;BME280;54288;53.046;5.668;2022-12-19T09:39:03;101406.84;;;6.40;100.00
67099;BME280;54288;53.046;5.668;2022-12-19T09:41:38;101402.50;;;6.42;100.00
67099;BME280;54288;53.046;5.668;2022-12-19T09:47:15;101411.25;;;6.55;100.00
67099;BME280;54288;53.046;5.668;2022-12-19T09:49:45;101426.88;;;6.59;100.00
67099;BME280;54288;53.046;5.668;2022-12-19T09:52:24;101406.00;;;6.50;100.00
67099;BME280;54288;53.046;5.668;2022-12-19T09:55:04;101383.41;;;6.37;100.00
67099;BME280;54288;53.046;5.668;2022-12-19T09:57:36;101425.13;;;6.61;100.00
67099;BME280;54288;53.046;5.668;2022-12-19T10:00:09;101432.09;;;6.64;100.00
67099;BME280;54288;53.046;5.668;2022-12-19T10:02:58;101421.69;;;6.65;100.00
67099;BME280;54288;53.046;5.668;2022-12-19T10:05:45;101426.03;;;6.68;100.00
67099;BME280;54288;53.046;5.668;2022-12-19T10:08:41;101437.34;;;6.68;100.00
67099;BME280;54288;53.046;5.668;2022-12-19T10:16:27;101433.00;;;6.72;100.00
67099;BME280;54288;53.046;5.668;2022-12-19T10:18:57;101401.72;;;6.58;100.00
67099;BME280;54288;53.046;5.668;2022-12-19T10:21:48;101386.09;;;6.61;100.00
67099;BME280;54288;53.046;5.668;2022-12-19T10:24:27;101416.59;;;6.86;100.00
67099;BME280;54288;53.046;5.668;2022-12-19T10:27:40;101393.94;;;6.64;100.00
67099;BME280;54288;53.046;5.668;2022-12-19T10:30:18;101404.41;;;6.78;100.00
67099;BME280;54288;53.046;5.668;2022-12-19T10:35:35;101420.94;;;6.98;100.00
67099;BME280;54288;53.046;5.668;2022-12-19T10:38:36;101422.72;;;7.02;100.00
67099;BME280;54288;53.046;5.668;2022-12-19T10:41:24;101420.09;;;7.05;100.00
67099;BME280;54288;53.046;5.668;2022-12-19T10:44:05;101393.16;;;6.89;100.00
67099;BME280;54288;53.046;5.668;2022-12-19T10:46:43;101390.56;;;6.91;100.00
67099;BME280;54288;53.046;5.668;2022-12-19T10:49:20;101432.28;;;7.10;100.00
67099;BME280;54288;53.046;5.668;2022-12-19T10:52:00;101407.91;;;6.96;100.00
67099;BME280;54288;53.046;5.668;2022-12-19T10:57:25;101393.19;;;6.98;100.00
67099;BME280;54288;53.046;5.668;2022-12-19T11:00:24;101414.94;;;7.21;100.00
67099;BME280;54288;53.046;5.668;2022-12-19T11:03:07;101412.31;;;7.12;100.00
67099;BME280;54288;53.046;5.668;2022-12-19T11:05:51;101390.56;;;7.01;100.00
67099;BME280;54288;53.046;5.668;2022-12-19T11:08:22;101374.13;;;7.07;100.00
67099;BME280;54288;53.046;5.668;2022-12-19T11:10:52;101381.94;;;7.13;100.00
67099;BME280;54288;53.046;5.668;2022-12-19T11:13:30;101403.69;;;7.25;100.00
67099;BME280;54288;53.046;5.668;2022-12-19T11:16:06;101388.00;;;7.09;100.00
67099;BME280;54288;53.046;5.668;2022-12-19T11:18:46;101392.38;;;7.25;100.00
67099;BME280;54288;53.046;5.668;2022-12-19T11:26:41;101385.44;;;7.31;100.00
67099;BME280;54288;53.046;5.668;2022-12-19T11:32:01;101398.47;;;7.40;100.00
67099;BME280;54288;53.046;5.668;2022-12-19T11:34:30;101382.81;;;7.33;100.00
67099;BME280;54288;53.046;5.668;2022-12-19T11:40:21;101384.59;;;7.40;100.00
67099;BME280;54288;53.046;5.668;2022-12-19T11:42:58;101356.78;;;7.18;100.00
67099;BME280;54288;53.046;5.668;2022-12-19T11:48:12;101369.78;;;7.33;100.00
67099;BME280;54288;53.046;5.668;2022-12-19T11:53:35;101359.38;;;7.28;100.00
67099;BME280;54288;53.046;5.668;2022-12-19T11:56:13;101362.00;;;7.39;100.00
67099;BME280;54288;53.046;5.668;2022-12-19T11:58:40;101364.59;;;7.34;100.00
67099;BME280;54288;53.046;5.668;2022-12-19T12:04:18;101372.44;;;7.49;100.00
67099;BME280;54288;53.046;5.668;2022-12-19T12:06:56;101381.09;;;7.50;100.00
67099;BME280;54288;53.046;5.668;2022-12-19T12:09:42;101341.16;;;7.31;100.00
67099;BME280;54288;53.046;5.668;2022-12-19T12:12:25;101382.84;;;7.52;100.00
67099;BME280;54288;53.046;5.668;2022-12-19T12:15:26;101375.88;;;7.50;100.00
67099;BME280;54288;53.046;5.668;2022-12-19T12:26:26;101361.13;;;7.35;100.00
67099;BME280;54288;53.046;5.668;2022-12-19T12:31:45;101372.44;;;7.51;100.00
67099;BME280;54288;53.046;5.668;2022-12-19T12:37:43;101367.22;;;7.48;100.00
67099;BME280;54288;53.046;5.668;2022-12-19T12:40:33;101364.63;;;7.43;100.00
67099;BME280;54288;53.046;5.668;2022-12-19T12:45:43;101369.81;;;7.43;100.00
67099;BME280;54288;53.046;5.668;2022-12-19T12:48:40;101373.31;;;7.41;100.00
67099;BME280;54288;53.046;5.668;2022-12-19T12:51:09;101361.13;;;7.38;100.00
67099;BME280;54288;53.046;5.668;2022-12-19T12:53:39;101372.44;;;7.42;100.00
67099;BME280;54288;53.046;5.668;2022-12-19T12:56:11;101361.13;;;7.37;100.00
67099;BME280;54288;53.046;5.668;2022-12-19T12:59:04;101356.78;;;7.40;100.00
67099;BME280;54288;53.046;5.668;2022-12-19T13:01:36;101362.88;;;7.42;100.00
67099;BME280;54288;53.046;5.668;2022-12-19T13:04:04;101352.47;;;7.42;100.00
67099;BME280;54288;53.046;5.668;2022-12-19T13:14:47;101355.94;;;7.38;100.00
67099;BME280;54288;53.046;5.668;2022-12-19T13:20:24;101326.38;;;7.30;100.00
67099;BME280;54288;53.046;5.668;2022-12-19T13:31:14;101334.22;;;7.41;100.00
67099;BME280;54288;53.046;5.668;2022-12-19T13:36:44;101335.94;;;7.48;100.00
67099;BME280;54288;53.046;5.668;2022-12-19T13:39:29;101308.16;;;7.47;100.00
67099;BME280;54288;53.046;5.668;2022-12-19T13:42:12;101319.44;;;7.53;100.00
67099;BME280;54288;53.046;5.668;2022-12-19T13:45:02;101318.59;;;7.54;100.00
67099;BME280;54288;53.046;5.668;2022-12-19T13:47:34;101321.19;;;7.54;100.00
67099;BME280;54288;53.046;5.668;2022-12-19T13:52:47;101312.50;;;7.49;100.00
67099;BME280;54288;53.046;5.668;2022-12-19T13:55:13;101318.59;;;7.48;100.00
67099;BME280;54288;53.046;5.668;2022-12-19T13:57:39;101309.03;;;7.50;100.00
67099;BME280;54288;53.046;5.668;2022-12-19T14:00:12;101309.91;;;7.51;100.00
67099;BME280;54288;53.046;5.668;2022-12-19T14:02:51;101309.00;;;7.47;100.00
67099;BME280;54288;53.046;5.668;2022-12-19T14:05:28;101301.22;;;7.46;100.00
67099;BME280;54288;53.046;5.668;2022-12-19T14:07:55;101295.13;;;7.47;100.00
67099;BME280;54288;53.046;5.668;2022-12-19T14:10:29;101298.59;;;7.47;100.00
67099;BME280;54288;53.046;5.668;2022-12-19T14:12:59;101300.34;;;7.48;100.00
67099;BME280;54288;53.046;5.668;2022-12-19T14:15:47;101305.56;;;7.48;100.00
67099;BME280;54288;53.046;5.668;2022-12-19T14:18:29;101312.50;;;7.46;100.00
67099;BME280;54288;53.046;5.668;2022-12-19T14:23:36;101297.75;;;7.47;100.00
67099;BME280;54288;53.046;5.668;2022-12-19T14:26:07;101288.19;;;7.44;100.00
67099;BME280;54288;53.046;5.668;2022-12-19T14:28:42;101278.66;;;7.37;100.00
67099;BME280;54288;53.046;5.668;2022-12-19T14:31:15;101289.91;;;7.39;100.00
67099;BME280;54288;53.046;5.668;2022-12-19T14:33:48;101291.63;;;7.39;100.00
67099;BME280;54288;53.046;5.668;2022-12-19T14:36:24;101284.69;;;7.38;100.00
67099;BME280;54288;53.046;5.668;2022-12-19T14:38:50;101289.94;;;7.41;100.00
67099;BME280;54288;53.046;5.668;2022-12-19T14:41:35;101298.59;;;7.41;100.00
67099;BME280;54288;53.046;5.668;2022-12-19T14:44:21;101294.25;;;7.39;100.00
67099;BME280;54288;53.046;5.668;2022-12-19T14:47:23;101299.44;;;7.45;100.00
67099;BME280;54288;53.046;5.668;2022-12-19T14:49:51;101302.06;;;7.46;100.00
67099;BME280;54288;53.046;5.668;2022-12-19T14:52:39;101298.59;;;7.44;100.00
67099;BME280;54288;53.046;5.668;2022-12-19T14:55:28;101302.06;;;7.46;100.00
67099;BME280;54288;53.046;5.668;2022-12-19T14:57:55;101296.00;;;7.49;100.00
67099;BME280;54288;53.046;5.668;2022-12-19T15:00:49;101295.13;;;7.48;100.00
67099;BME280;54288;53.046;5.668;2022-12-19T15:03:29;101300.31;;;7.50;100.00
67099;BME280;54288;53.046;5.668;2022-12-19T15:06:13;101303.78;;;7.53;100.00
67099;BME280;54288;53.046;5.668;2022-12-19T15:08:41;101309.00;;;7.55;100.00
67099;BME280;54288;53.046;5.668;2022-12-19T15:11:25;101310.75;;;7.54;100.00
67099;BME280;54288;53.046;5.668;2022-12-19T15:14:10;101296.84;;;7.52;100.00
67099;BME280;54288;53.046;5.668;2022-12-19T15:16:36;101300.34;;;7.54;100.00
67099;BME280;54288;53.046;5.668;2022-12-19T15:19:03;101307.28;;;7.63;100.00
67099;BME280;54288;53.046;5.668;2022-12-19T15:21:30;101304.66;;;7.69;100.00
67099;BME280;54288;53.046;5.668;2022-12-19T15:23:56;101289.91;;;7.60;100.00
67099;BME280;54288;53.046;5.668;2022-12-19T15:28:54;101309.84;;;7.81;100.00
67099;BME280;54288;53.046;5.668;2022-12-19T15:31:37;101303.78;;;7.77;100.00
67099;BME280;54288;53.046;5.668;2022-12-19T15:39:26;101279.47;;;7.60;100.00
67099;BME280;54288;53.046;5.668;2022-12-19T15:41:57;101305.53;;;7.80;100.00
67099;BME280;54288;53.046;5.668;2022-12-19T15:44:37;101276.00;;;7.58;100.00
67099;BME280;54288;53.046;5.668;2022-12-19T15:54:02;101265.56;;;7.64;100.00
67099;BME280;54288;53.046;5.668;2022-12-19T15:59:34;101276.00;;;7.54;100.00
67099;BME280;54288;53.046;5.668;2022-12-19T16:02:07;101267.31;;;7.50;100.00
67099;BME280;54288;53.046;5.668;2022-12-19T16:04:59;101281.19;;;7.58;100.00
67099;BME280;54288;53.046;5.668;2022-12-19T16:07:27;101308.13;;;7.69;100.00
67099;BME280;54288;53.046;5.668;2022-12-19T16:09:54;101302.91;;;7.62;100.00
67099;BME280;54288;53.046;5.668;2022-12-19T16:12:30;101308.13;;;7.62;100.00
67099;BME280;54288;53.046;5.668;2022-12-19T16:14:59;101274.28;;;7.39;100.00
67099;BME280;54288;53.046;5.668;2022-12-19T16:17:33;101271.69;;;7.38;100.00
67099;BME280;54288;53.046;5.668;2022-12-19T16:19:59;101305.53;;;7.59;100.00
67099;BME280;54288;53.046;5.668;2022-12-19T16:22:27;101249.09;;;7.28;100.00
67099;BME280;54288;53.046;5.668;2022-12-19T16:27:40;101263.03;;;7.31;100.00
67099;BME280;54288;53.046;5.668;2022-12-19T16:30:38;101286.44;;;7.34;100.00
67099;BME280;54288;53.046;5.668;2022-12-19T16:33:20;101273.44;;;7.37;100.00
67099;BME280;54288;53.046;5.668;2022-12-19T16:38:29;101253.47;;;7.29;100.00
67099;BME280;54288;53.046;5.668;2022-12-19T16:44:20;101264.75;;;7.34;100.00
67099;BME280;54288;53.046;5.668;2022-12-19T16:49:39;101286.44;;;7.55;100.00
67099;BME280;54288;53.046;5.668;2022-12-19T16:52:06;101253.44;;;7.38;100.00
67099;BME280;54288;53.046;5.668;2022-12-19T16:57:48;101263.00;;;7.40;100.00
67099;BME280;54288;53.046;5.668;2022-12-19T17:05:49;101263.88;;;7.33;100.00
67099;BME280;54288;53.046;5.668;2022-12-19T17:14:15;101238.69;;;7.32;100.00
67099;BME280;54288;53.046;5.668;2022-12-19T17:22:16;101253.47;;;7.35;100.00
67099;BME280;54288;53.046;5.668;2022-12-19T17:24:48;101247.38;;;7.24;100.00
67099;BME280;54288;53.046;5.668;2022-12-19T17:27:15;101243.06;;;7.23;100.00
67099;BME280;54288;53.046;5.668;2022-12-19T17:29:48;101234.34;;;7.19;100.00
67099;BME280;54288;53.046;5.668;2022-12-19T17:32:16;101236.94;;;7.19;100.00
67099;BME280;54288;53.046;5.668;2022-12-19T17:34:43;101272.56;;;7.32;100.00
67099;BME280;54288;53.046;5.668;2022-12-19T17:37:15;101240.44;;;7.15;100.00
67099;BME280;54288;53.046;5.668;2022-12-19T17:39:43;101278.63;;;7.30;100.00
67099;BME280;54288;53.046;5.668;2022-12-19T17:44:54;101263.00;;;7.22;100.00
67099;BME280;54288;53.046;5.668;2022-12-19T17:47:23;101268.22;;;7.18;100.00
67099;BME280;54288;53.046;5.668;2022-12-19T17:49:51;101263.03;;;7.18;100.00
67099;BME280;54288;53.046;5.668;2022-12-19T17:52:23;101235.22;;;6.94;100.00
67099;BME280;54288;53.046;5.668;2022-12-19T17:54:49;101221.34;;;6.92;100.00
67099;BME280;54288;53.046;5.668;2022-12-19T17:57:18;101263.88;;;7.18;100.00
67099;BME280;54288;53.046;5.668;2022-12-19T17:59:45;101243.91;;;7.02;100.00
67099;BME280;54288;53.046;5.668;2022-12-19T18:02:23;101256.06;;;7.06;100.00
67099;BME280;54288;53.046;5.668;2022-12-19T18:04:51;101260.41;;;7.00;100.00